createdAt,value
2022-08-18T00:33:49.819Z,24.05
2022-08-18T00:36:25.622Z,24.13
2022-08-18T00:45:47.231Z,24.19
2022-08-18T00:48:17.130Z,24.17
2022-08-18T00:50:52.590Z,24.17
2022-08-18T00:53:24.187Z,24.21
2022-08-18T00:55:54.107Z,24.24
2022-08-18T00:58:45.789Z,24.24
2022-08-18T01:01:15.577Z,24.22
2022-08-18T01:03:53.821Z,24.17
2022-08-18T01:06:36.946Z,24.14
2022-08-18T01:09:05.643Z,24.07
2022-08-18T01:11:37.934Z,23.98
2022-08-18T01:14:11.455Z,23.97
2022-08-18T01:17:04.832Z,23.94
2022-08-18T01:19:53.303Z,23.88
2022-08-18T01:22:27.705Z,23.80
2022-08-18T01:25:17.793Z,23.71
2022-08-18T01:27:46.338Z,23.61
2022-08-18T01:30:18.913Z,23.52
2022-08-18T01:32:47.306Z,23.43
2022-08-18T01:35:18.514Z,23.30
2022-08-18T01:37:46.810Z,23.18
2022-08-18T01:41:22.569Z,23.11
2022-08-18T01:43:06.383Z,23.07
2022-08-18T01:45:35.561Z,23.03
2022-08-18T01:48:05.497Z,22.98
2022-08-18T01:50:37.205Z,22.96
2022-08-18T01:53:06.836Z,22.94
2022-08-18T01:55:36.800Z,22.90
2022-08-18T01:58:09.343Z,22.88
2022-08-18T02:00:38.012Z,22.86
2022-08-18T02:03:09.697Z,22.86
2022-08-18T02:05:50.938Z,22.86
2022-08-18T02:08:21.908Z,22.87
2022-08-18T02:10:59.216Z,22.88
2022-08-18T02:13:28.094Z,22.87
2022-08-18T02:15:56.895Z,22.89
2022-08-18T02:18:47.691Z,22.90
2022-08-18T02:21:19.700Z,22.93
2022-08-18T02:23:53.369Z,22.89
2022-08-18T02:26:24.236Z,22.87
2022-08-18T02:28:53.275Z,22.85
2022-08-18T02:31:23.971Z,22.86
2022-08-18T02:33:53.574Z,22.84
2022-08-18T02:36:25.273Z,22.81
2022-08-18T02:38:56.651Z,22.80
2022-08-18T02:41:29.975Z,22.79
2022-08-18T02:43:59.557Z,22.76
2022-08-18T02:46:29.232Z,22.72
2022-08-18T02:48:59.132Z,22.70
2022-08-18T02:51:28.941Z,22.70
2022-08-18T02:54:00.285Z,22.68
2022-08-18T02:56:41.377Z,22.66
2022-08-18T02:59:20.898Z,22.62
2022-08-18T03:01:52.419Z,22.59
2022-08-18T03:04:28.894Z,22.54
2022-08-18T03:07:00.737Z,22.46
2022-08-18T03:09:29.270Z,22.40
2022-08-18T03:11:57.659Z,22.37
2022-08-18T03:14:26.469Z,22.30
2022-08-18T03:16:55.454Z,22.24
2022-08-18T03:19:29.474Z,22.16
2022-08-18T03:22:02.552Z,22.05
2022-08-18T03:24:33.286Z,21.98
2022-08-18T03:27:06.901Z,21.88
2022-08-18T03:29:36.724Z,21.76
2022-08-18T03:32:08.068Z,21.68
2022-08-18T03:34:36.719Z,21.57
2022-08-18T03:37:05.267Z,21.46
2022-08-18T03:39:33.714Z,21.40
2022-08-18T03:42:02.391Z,21.35
2022-08-18T03:44:33.593Z,21.29
2022-08-18T03:47:04.541Z,21.19
2022-08-18T03:49:34.528Z,21.10
2022-08-18T03:52:04.820Z,21.03
2022-08-18T03:54:34.545Z,21.00
2022-08-18T03:57:02.910Z,20.94
2022-08-18T03:59:32.728Z,20.88
2022-08-18T04:02:03.711Z,20.82
2022-08-18T04:04:31.728Z,20.71
2022-08-18T04:07:05.954Z,20.71
2022-08-18T04:09:36.891Z,20.74
2022-08-18T04:12:16.279Z,20.71
2022-08-18T04:14:49.143Z,20.63
2022-08-18T04:17:25.579Z,20.54
2022-08-18T04:19:58.139Z,20.46
2022-08-18T04:22:27.638Z,20.44
2022-08-18T04:24:58.098Z,20.46
2022-08-18T04:27:26.516Z,20.44
2022-08-18T04:29:57.771Z,20.42
2022-08-18T04:32:29.720Z,20.38
2022-08-18T04:34:59.457Z,20.35
2022-08-18T04:37:33.412Z,20.31
2022-08-18T04:40:08.766Z,20.29
2022-08-18T04:42:43.388Z,20.27
2022-08-18T04:45:14.361Z,20.20
2022-08-18T04:47:42.821Z,20.16
2022-08-18T04:50:12.855Z,20.12
2022-08-18T04:53:00.710Z,20.08
2022-08-18T04:55:30.205Z,20.02
2022-08-18T04:58:02.054Z,19.96
2022-08-18T05:00:30.420Z,19.90
2022-08-18T05:02:59.045Z,19.83
2022-08-18T05:05:28.529Z,19.78
2022-08-18T05:07:57.434Z,19.76
2022-08-18T05:10:25.785Z,19.76
2022-08-18T05:12:54.058Z,19.72
2022-08-18T05:15:25.313Z,19.67
2022-08-18T05:17:53.903Z,19.60
2022-08-18T05:20:23.279Z,19.58
2022-08-18T05:22:51.612Z,19.55
2022-08-18T05:25:22.994Z,19.53
2022-08-18T05:27:51.406Z,19.51
2022-08-18T05:30:19.982Z,19.49
2022-08-18T05:32:50.287Z,19.47
2022-08-18T05:35:26.441Z,19.44
2022-08-18T05:38:07.135Z,19.41
2022-08-18T05:40:37.508Z,19.35
2022-08-18T05:43:07.500Z,19.32
2022-08-18T05:45:36.508Z,19.25
2022-08-18T05:48:05.113Z,19.17
2022-08-18T05:50:39.823Z,19.11
2022-08-18T05:53:16.720Z,19.12
2022-08-18T05:56:30.976Z,19.07
2022-08-18T05:59:02.222Z,18.99
2022-08-18T06:01:37.249Z,18.95
2022-08-18T06:04:20.924Z,18.92
2022-08-18T06:06:50.461Z,18.87
2022-08-18T06:09:33.529Z,18.85
2022-08-18T06:12:19.368Z,18.75
2022-08-18T06:14:47.979Z,18.70
2022-08-18T06:17:48.910Z,18.71
2022-08-18T06:20:37.365Z,18.64
2022-08-18T06:23:33.719Z,18.61
2022-08-18T06:26:29.721Z,18.56
2022-08-18T06:29:51.093Z,18.53
2022-08-18T06:32:49.795Z,18.58
2022-08-18T06:35:48.612Z,18.57
2022-08-18T06:38:45.398Z,18.54
2022-08-18T06:41:40.773Z,18.49
2022-08-18T06:44:17.845Z,18.42
2022-08-18T06:46:48.793Z,18.39
2022-08-18T06:49:58.775Z,18.39
2022-08-18T06:52:34.683Z,18.29
2022-08-18T06:55:16.853Z,18.17
2022-08-18T06:57:58.671Z,18.09
2022-08-18T07:00:32.407Z,18.00
2022-08-18T07:03:19.819Z,17.95
2022-08-18T07:06:06.937Z,17.87
2022-08-18T07:08:42.082Z,17.77
2022-08-18T07:11:30.528Z,17.74
2022-08-18T07:14:17.319Z,17.69
2022-08-18T07:17:01.045Z,17.65
2022-08-18T07:19:33.791Z,17.62
2022-08-18T07:22:19.463Z,17.59
2022-08-18T07:25:05.347Z,17.54
2022-08-18T07:27:53.693Z,17.57
2022-08-18T07:30:22.061Z,17.56
2022-08-18T07:33:13.531Z,17.58
2022-08-18T07:35:45.982Z,17.53
2022-08-18T07:38:41.903Z,17.54
2022-08-18T07:41:23.647Z,17.54
2022-08-18T07:43:58.646Z,17.49
2022-08-18T07:46:36.963Z,17.48
2022-08-18T07:49:07.939Z,17.48
2022-08-18T07:51:45.554Z,17.50
2022-08-18T07:54:50.367Z,17.53
2022-08-18T07:57:42.117Z,17.53
2022-08-18T08:00:57.635Z,17.54
2022-08-18T08:03:33.981Z,17.57
2022-08-18T08:06:23.423Z,17.56
2022-08-18T08:08:59.819Z,17.59
2022-08-18T08:11:41.796Z,17.58
2022-08-18T08:14:46.185Z,17.54
2022-08-18T08:17:35.744Z,17.49
2022-08-18T08:20:33.027Z,17.53
2022-08-18T08:23:01.485Z,17.53
2022-08-18T08:25:57.469Z,17.53
2022-08-18T08:28:44.008Z,17.53
2022-08-18T08:31:36.812Z,17.53
2022-08-18T08:34:21.344Z,17.52
2022-08-18T08:36:53.059Z,17.47
2022-08-18T08:39:39.517Z,17.42
2022-08-18T08:42:30.437Z,17.43
2022-08-18T08:45:11.592Z,17.41
2022-08-18T08:48:08.525Z,17.40
2022-08-18T08:50:47.094Z,17.38
2022-08-18T08:53:33.050Z,17.39
2022-08-18T08:56:07.549Z,17.38
2022-08-18T08:58:46.598Z,17.39
2022-08-18T09:01:42.503Z,17.41
2022-08-18T09:04:57.950Z,17.39
2022-08-18T09:07:44.374Z,17.36
2022-08-18T09:10:24.819Z,17.39
2022-08-18T09:13:32.012Z,17.39
2022-08-18T09:16:14.228Z,17.39
2022-08-18T09:18:57.413Z,17.39
2022-08-18T09:21:39.576Z,17.39
2022-08-18T09:24:22.472Z,17.40
2022-08-18T09:27:05.985Z,17.39
2022-08-18T09:29:44.261Z,17.33
2022-08-18T09:32:22.783Z,17.36
2022-08-18T09:35:23.013Z,17.34
2022-08-18T09:38:41.308Z,17.29
2022-08-18T09:41:33.878Z,17.25
2022-08-18T09:44:17.734Z,17.27
2022-08-18T09:46:52.083Z,17.29
2022-08-18T09:49:27.046Z,17.32
2022-08-18T09:52:02.231Z,17.30
2022-08-18T09:54:33.727Z,17.29
2022-08-18T09:57:05.253Z,17.21
2022-08-18T09:59:37.368Z,17.11
2022-08-18T10:05:22.448Z,17.05
2022-08-18T10:08:09.037Z,16.99
2022-08-18T10:11:00.625Z,16.99
2022-08-18T10:14:01.341Z,16.99
2022-08-18T10:17:21.757Z,17.01
2022-08-18T10:20:08.498Z,17.03
2022-08-18T10:22:55.669Z,17.00
2022-08-18T10:25:43.828Z,17.03
2022-08-18T10:28:32.464Z,17.02
2022-08-18T10:31:10.063Z,17.04
2022-08-18T10:34:05.537Z,17.06
2022-08-18T10:36:51.598Z,17.06
2022-08-18T10:39:28.933Z,17.05
2022-08-18T10:42:14.845Z,17.01
2022-08-18T10:44:46.705Z,16.98
2022-08-18T10:47:43.499Z,16.99
2022-08-18T10:50:24.478Z,16.94
2022-08-18T10:53:32.852Z,16.93
2022-08-18T10:56:12.833Z,16.94
2022-08-18T11:02:37.167Z,16.87
2022-08-18T11:05:15.800Z,16.83
2022-08-18T11:07:53.479Z,16.79
2022-08-18T11:10:57.864Z,16.77
2022-08-18T11:13:46.098Z,16.70
2022-08-18T11:16:30.136Z,16.66
2022-08-18T11:19:09.156Z,16.62
2022-08-18T11:21:44.146Z,16.58
2022-08-18T11:24:26.527Z,16.55
2022-08-18T11:27:02.864Z,16.53
2022-08-18T11:29:37.548Z,16.52
2022-08-18T11:32:23.934Z,16.53
2022-08-18T11:35:02.777Z,16.52
2022-08-18T11:37:57.898Z,16.53
2022-08-18T11:43:41.961Z,16.50
2022-08-18T11:46:40.232Z,16.60
2022-08-18T11:49:27.131Z,16.71
2022-08-18T11:52:30.805Z,16.83
2022-08-18T11:55:16.538Z,16.91
2022-08-18T11:57:59.335Z,16.95
2022-08-18T12:00:47.428Z,16.93
2022-08-18T12:07:28.764Z,16.89
2022-08-18T12:10:16.788Z,16.88
2022-08-18T12:13:28.850Z,16.89
2022-08-18T12:16:38.510Z,16.88
2022-08-18T12:19:12.439Z,16.89
2022-08-18T12:22:26.843Z,16.94
2022-08-18T12:24:59.903Z,16.88
2022-08-18T12:27:34.374Z,16.89
2022-08-18T12:30:08.417Z,16.90
2022-08-18T12:36:38.297Z,16.76
2022-08-18T12:39:17.864Z,16.65
2022-08-18T12:42:33.751Z,16.55
2022-08-18T12:54:33.413Z,16.22
2022-08-18T12:57:51.607Z,16.12
2022-08-18T13:00:59.930Z,15.99
2022-08-18T13:03:28.510Z,15.90
2022-08-18T13:06:28.103Z,15.84
2022-08-18T13:09:06.695Z,15.78
2022-08-18T13:12:03.850Z,15.76
2022-08-18T13:14:32.639Z,15.72
2022-08-18T13:23:01.238Z,15.60
2022-08-18T13:25:39.934Z,15.57
2022-08-18T13:28:33.633Z,15.51
2022-08-18T13:31:30.785Z,15.49
2022-08-18T13:34:04.032Z,15.49
2022-08-18T13:36:48.409Z,15.50
2022-08-18T13:39:20.966Z,15.48
2022-08-18T13:41:52.901Z,15.48
2022-08-18T13:44:25.898Z,15.43
2022-08-18T13:46:56.577Z,15.34
2022-08-18T13:49:30.380Z,15.30
2022-08-18T13:52:00.292Z,15.30
2022-08-18T13:54:38.721Z,15.34
2022-08-18T13:57:10.663Z,15.33
2022-08-18T13:59:46.463Z,15.30
2022-08-18T14:02:15.449Z,15.28
2022-08-18T14:04:46.351Z,15.25
2022-08-18T14:07:18.836Z,15.25
2022-08-18T14:09:47.562Z,15.28
2022-08-18T14:12:41.548Z,15.32
2022-08-18T14:15:13.876Z,15.34
2022-08-18T14:17:45.098Z,15.38
2022-08-18T14:20:34.922Z,15.38
2022-08-18T14:23:33.407Z,15.43
2022-08-18T14:26:21.633Z,15.47
2022-08-18T14:28:53.057Z,15.51
2022-08-18T14:31:34.195Z,15.52
2022-08-18T14:38:00.682Z,15.43
2022-08-18T14:40:34.191Z,15.33
2022-08-18T14:43:06.481Z,15.31
2022-08-18T14:45:36.762Z,15.31
2022-08-18T14:48:11.218Z,15.23
2022-08-18T14:50:49.032Z,15.16
2022-08-18T14:53:35.765Z,15.12
2022-08-18T14:56:28.935Z,15.13
2022-08-18T14:58:59.841Z,15.17
2022-08-18T15:01:29.371Z,15.18
2022-08-18T15:04:18.617Z,15.25
2022-08-18T15:06:59.731Z,15.26
2022-08-18T15:09:31.380Z,15.34
2022-08-18T15:12:01.543Z,15.45
2022-08-18T15:14:34.322Z,15.57
2022-08-18T15:17:11.632Z,15.68
2022-08-18T15:19:58.317Z,15.80
2022-08-18T15:22:57.829Z,15.82
2022-08-18T15:25:59.185Z,15.82
2022-08-18T15:28:30.285Z,15.86
2022-08-18T15:33:57.557Z,16.10
2022-08-18T15:36:29.760Z,16.24
2022-08-18T15:39:28.637Z,16.35
2022-08-18T15:46:09.607Z,16.62
2022-08-18T15:48:38.181Z,16.68
2022-08-18T15:51:35.570Z,16.81
2022-08-18T15:54:30.029Z,16.96
2022-08-18T15:56:59.886Z,17.11
2022-08-18T16:15:38.944Z,17.84
2022-08-18T16:22:00.421Z,18.14
2022-08-18T16:25:00.641Z,18.30
2022-08-18T16:30:26.432Z,18.47
2022-08-18T16:33:08.350Z,18.44
2022-08-18T16:36:26.438Z,18.44
2022-08-18T16:39:06.970Z,18.46
2022-08-18T16:42:01.451Z,18.42
2022-08-18T16:44:30.792Z,18.43
2022-08-18T16:46:59.334Z,18.39
2022-08-18T16:49:30.683Z,18.43
2022-08-18T16:52:05.727Z,18.53
2022-08-18T16:54:37.380Z,18.60
2022-08-18T16:57:05.869Z,18.66
2022-08-18T16:59:52.692Z,18.73
2022-08-18T17:02:39.995Z,18.75
2022-08-18T17:05:08.795Z,18.83
2022-08-18T17:07:48.721Z,18.95
2022-08-18T17:10:22.949Z,19.06
2022-08-18T17:13:00.871Z,19.17
2022-08-18T17:15:35.525Z,19.28
2022-08-18T17:18:03.844Z,19.42
2022-08-18T17:20:55.392Z,19.54
2022-08-18T17:23:24.562Z,19.68
2022-08-18T17:26:02.647Z,19.78
2022-08-18T17:28:50.632Z,19.92
2022-08-18T17:31:35.562Z,20.03
2022-08-18T17:34:12.186Z,20.16
2022-08-18T17:36:56.865Z,20.26
2022-08-18T17:47:23.590Z,20.45
2022-08-18T17:54:38.922Z,20.66
2022-08-18T18:03:32.291Z,20.84
2022-08-18T18:06:12.244Z,20.96
2022-08-18T18:08:59.183Z,21.07
2022-08-18T18:11:32.341Z,21.15
2022-08-18T18:14:30.691Z,21.16
2022-08-18T18:17:19.859Z,21.21
2022-08-18T18:19:53.088Z,21.23
2022-08-18T18:22:31.912Z,21.27
2022-08-18T18:25:07.414Z,21.30
2022-08-18T18:27:41.606Z,21.32
2022-08-18T18:30:28.181Z,21.40
2022-08-18T18:33:16.225Z,21.50
2022-08-18T18:35:55.011Z,21.63
2022-08-18T18:38:34.116Z,21.79
2022-08-18T18:41:03.791Z,21.95
2022-08-18T18:43:45.592Z,22.08
2022-08-18T18:46:19.078Z,22.15
2022-08-18T18:49:17.484Z,22.18
2022-08-18T18:52:12.971Z,22.18
2022-08-18T18:55:07.164Z,22.18
2022-08-18T18:57:54.928Z,22.13
2022-08-18T19:03:40.195Z,22.09
2022-08-18T19:06:17.142Z,22.10
2022-08-18T19:13:01.586Z,22.23
2022-08-18T19:15:35.307Z,22.32
2022-08-18T19:18:37.120Z,22.39
2022-08-18T19:24:34.411Z,22.60
2022-08-18T19:27:31.789Z,22.68
2022-08-18T19:30:39.346Z,22.81
2022-08-18T19:33:32.660Z,22.92
2022-08-18T19:36:38.884Z,23.02
2022-08-18T20:11:42.103Z,23.06
2022-08-18T20:15:03.326Z,23.14
2022-08-18T20:18:01.919Z,23.19
2022-08-18T20:24:40.455Z,23.14
2022-08-18T20:28:00.633Z,23.17
2022-08-18T20:31:02.837Z,23.22
2022-08-18T20:36:38.110Z,23.30
2022-08-18T20:39:51.947Z,23.32
2022-08-18T20:45:36.307Z,23.44
2022-08-18T20:48:35.505Z,23.54
2022-08-18T20:51:16.792Z,23.57
2022-08-18T20:54:57.561Z,23.62
2022-08-18T20:57:39.689Z,23.65
2022-08-18T21:00:43.366Z,23.70
2022-08-18T21:03:41.387Z,23.76
2022-08-18T21:06:39.480Z,23.78
2022-08-18T21:09:10.768Z,23.79
2022-08-18T21:11:48.219Z,23.83
2022-08-18T21:14:36.538Z,23.90
2022-08-18T21:17:15.210Z,23.98
2022-08-18T21:19:46.996Z,24.02
2022-08-18T21:22:40.654Z,24.10
2022-08-18T21:25:42.021Z,24.15
2022-08-18T21:28:16.019Z,24.19
2022-08-18T21:31:42.823Z,24.19
2022-08-18T21:34:45.278Z,24.24
2022-08-18T21:37:46.690Z,24.28
2022-08-18T21:41:38.215Z,24.33
2022-08-18T21:44:49.450Z,24.36
2022-08-18T22:14:08.189Z,24.94
2022-08-18T22:16:44.892Z,24.96
2022-08-18T22:19:41.371Z,25.00
2022-08-18T22:22:37.683Z,24.98
2022-08-18T22:35:46.514Z,24.97
2022-08-18T22:39:49.265Z,25.00
2022-08-18T23:24:40.296Z,25.20
2022-08-18T23:27:53.589Z,25.18
2022-08-18T23:30:45.599Z,25.21
2022-08-18T23:35:57.211Z,25.14
2022-08-18T23:38:44.216Z,25.14
2022-08-18T23:41:15.156Z,25.14
2022-08-18T23:43:48.433Z,25.15
2022-08-18T23:46:41.758Z,25.15
2022-08-18T23:49:15.895Z,25.18
2022-08-18T23:54:46.583Z,25.24
2022-08-18T23:57:15.149Z,25.26
2022-08-18T23:59:43.879Z,25.24
